Portada
METAR-TAF:

METAR-TAF

Aeroports :

Yasuj, Iran

latitud: 30-41-49N, longitud: 051-33E, altitud: 1825 m

Observació

L'informe es va fer fa 55 minuts, a les 04:00 UTC
Vent calma
Temperatura 0°C
Humitat 100%
Pressió 1019 hPa
Visibilitat: 8000 m
Escasses núvols a una alçada de 3500 ft

METAR: OISY 210400Z 00000KT 8000 FEW035 00/M00 Q1019

Hora: 08:25 (04:55 UTC)


TAF: manca

Observacions i pronòstics meteorològics de més de 4000 aeroports (METAR i TAF).

Les estacions disponibles són els punts grocs i vermells al mapa.

Posi el ratolí al punt desitjat per veure el nom de l'estació.

Feu clic per veure les observacions i els pronòstics meteorològics.

Per canviar el mapa: feu clic els botons verds amb una creu de color negre per apropar; al botó verd amb un guió per allunyar la imatge; o en les fletxes verdes per a mapes adjacents.


METAR-TAF: